San Francisco, CA

12:59 AM PDT on September 16, 2014 (GMT -0700)
San Francisco International | Change Station
CLOSE
Current Station
Airport
Location: San Francisco,
Elevation: 16 ft
Nearby Weather Stations

Elev 16 ft 37.62 °N, 122.37 °W | Updated 1 hour ago

Clear
Clear
65 °F
Feels Like 65 °F
N
5
Wind Variable Wind from WNW

Today
High -- | Low -- °F
--% Chance of Precip.
Yesterday
High -- | Low -- °F
Precip. -- in
6:52 AM 7:15 PM
Waning Gibbous, 48% visible
Pressure 29.94 in
Visibility 10.0 miles
Clouds Few 800 ft
Dew Point 61 °F
Humidity 87%
Rainfall 0.00 in
Snow Depth Not available.
UV 0 out of 12
Pollen 5.40 out of 12
PM2.5 Good
Flu Activity Not available.
METAR KSFO 160656Z 30004KT 10SM FEW008 18/16 A2994 RMK AO2 SLP138 T01830161

More Conditions Fewer Conditions

Pressure 29.94 in
Visibility 10.0 miles
Clouds Few 800 ft
Dew Point 61 °F
Humidity 87%
Rainfall 0.00 in
Snow Depth Not available.
UV 0 out of 12
Pollen 5.40 out of 12
PM2.5 Good
Flu Activity Not available.
METAR KSFO 160656Z 30004KT 10SM FEW008 18/16 A2994 RMK AO2 SLP138 T01830161

More Conditions Fewer Conditions

10-Day Weather Forecast

Almanac

Astronomy

Sep. 16, 2014 Rise Set
Actual Time 6:52 AM PDT 7:15 PM PDT
Civil Twilight 6:26 AM PDT 7:41 PM PDT
Nautical Twilight 5:55 AM PDT 8:12 PM PDT
Astronomical Twilight 5:23 AM PDT 8:43 PM PDT
Moon 12:11 AM PDT 2:38 PM PDT
Length of Visible Light 13h 15m
Length of Day
12h 23m
Tomorrow will be 2m 24s shorter.
Waning Gibbous, 48% of the Moon is Illuminated
Today
Waning Gibbous
Sep 24
New
Oct 1
First Quarter
Oct 8
Full
Oct 15
Last Quarter

Today's Extremes

State Highs State Lows

Community

WunderPhotos

Upload Photos

1,753,712 photos uploaded!

Nearby

Air Quality

  Air Quality AQ Index Pollutant
Yesterday Moderate
PM2.5
Yesterday Good
OZONE
Current Good
PM2.5
Monday Good
PM2.5
Tuesday Good
PM2.5
Wednesday Good
OZONE
Thursday Good
OZONE
Friday Good
OZONE
Saturday Good
OZONE

Snow Depth

Station Depth Elevation
Adin Mountain 0 in 6200 ft
Rubicon #2 0 in 7500 ft
Fallen Leaf 0 in 6300 ft
Spratt Creek 0 in 6200 ft
Leavitt Meadows 0 in 7200 ft

Earthquake Activity

City Distance Mag. Time & Date
Cobb, California 86 miles 2.7 11:07 AM PDT
2014-09-14
Minimum magnitude displayed is 2.5.

Coastal Water Temperatures

Place Temperature
No Stations Reporting

Nearby Weather Stations